sensor_id;sensor_type;location;lat;lon;timestamp;temperature;humidity
52787;DHT22;38661;53.152;5.846;2023-03-14T00:01:52;9.50;85.30
52787;DHT22;38661;53.152;5.846;2023-03-14T00:04:17;9.60;85.00
52787;DHT22;38661;53.152;5.846;2023-03-14T00:06:43;9.60;85.10
52787;DHT22;38661;53.152;5.846;2023-03-14T00:09:09;9.70;84.90
52787;DHT22;38661;53.152;5.846;2023-03-14T00:11:35;9.80;84.80
52787;DHT22;38661;53.152;5.846;2023-03-14T00:14:00;9.80;84.30
52787;DHT22;38661;53.152;5.846;2023-03-14T00:16:27;9.80;84.30
52787;DHT22;38661;53.152;5.846;2023-03-14T00:18:53;9.90;84.30
52787;DHT22;38661;53.152;5.846;2023-03-14T00:21:18;9.90;84.30
52787;DHT22;38661;53.152;5.846;2023-03-14T00:23:44;9.90;84.30
52787;DHT22;38661;53.152;5.846;2023-03-14T00:26:16;9.80;84.40
52787;DHT22;38661;53.152;5.846;2023-03-14T00:28:43;9.70;84.60
52787;DHT22;38661;53.152;5.846;2023-03-14T00:31:11;9.60;84.80
52787;DHT22;38661;53.152;5.846;2023-03-14T00:33:37;9.60;85.10
52787;DHT22;38661;53.152;5.846;2023-03-14T00:36:06;9.50;85.20
52787;DHT22;38661;53.152;5.846;2023-03-14T00:38:34;9.50;85.50
52787;DHT22;38661;53.152;5.846;2023-03-14T00:41:07;9.50;85.50
52787;DHT22;38661;53.152;5.846;2023-03-14T00:43:33;9.40;85.40
52787;DHT22;38661;53.152;5.846;2023-03-14T00:45:59;9.30;85.60
52787;DHT22;38661;53.152;5.846;2023-03-14T00:48:24;9.30;85.80
52787;DHT22;38661;53.152;5.846;2023-03-14T00:50:50;9.30;85.80
52787;DHT22;38661;53.152;5.846;2023-03-14T00:53:16;9.30;86.30
52787;DHT22;38661;53.152;5.846;2023-03-14T00:55:43;9.20;86.50
52787;DHT22;38661;53.152;5.846;2023-03-14T00:58:13;9.30;86.10
52787;DHT22;38661;53.152;5.846;2023-03-14T01:00:40;9.30;86.30
52787;DHT22;38661;53.152;5.846;2023-03-14T01:03:07;9.30;86.30
52787;DHT22;38661;53.152;5.846;2023-03-14T01:05:33;9.40;86.10
52787;DHT22;38661;53.152;5.846;2023-03-14T01:07:59;9.30;86.90
52787;DHT22;38661;53.152;5.846;2023-03-14T01:10:25;9.40;87.00
52787;DHT22;38661;53.152;5.846;2023-03-14T01:12:50;9.40;87.30
52787;DHT22;38661;53.152;5.846;2023-03-14T01:15:16;9.40;87.30
52787;DHT22;38661;53.152;5.846;2023-03-14T01:17:42;9.40;87.40
52787;DHT22;38661;53.152;5.846;2023-03-14T01:20:11;9.40;87.30
52787;DHT22;38661;53.152;5.846;2023-03-14T01:22:38;9.50;87.50
52787;DHT22;38661;53.152;5.846;2023-03-14T01:25:06;9.50;87.30
52787;DHT22;38661;53.152;5.846;2023-03-14T01:27:33;9.50;87.40
52787;DHT22;38661;53.152;5.846;2023-03-14T01:29:58;9.60;87.20
52787;DHT22;38661;53.152;5.846;2023-03-14T01:32:24;9.60;87.70
52787;DHT22;38661;53.152;5.846;2023-03-14T01:34:51;9.60;88.00
52787;DHT22;38661;53.152;5.846;2023-03-14T01:37:17;9.60;88.00
52787;DHT22;38661;53.152;5.846;2023-03-14T01:39:43;9.60;88.20
52787;DHT22;38661;53.152;5.846;2023-03-14T01:42:08;9.60;88.40
52787;DHT22;38661;53.152;5.846;2023-03-14T01:44:54;9.60;88.30
52787;DHT22;38661;53.152;5.846;2023-03-14T01:47:20;9.60;89.30
52787;DHT22;38661;53.152;5.846;2023-03-14T01:49:52;9.60;89.70
52787;DHT22;38661;53.152;5.846;2023-03-14T01:52:25;9.50;89.60
52787;DHT22;38661;53.152;5.846;2023-03-14T01:54:55;9.40;90.00
52787;DHT22;38661;53.152;5.846;2023-03-14T01:57:33;9.40;90.30
52787;DHT22;38661;53.152;5.846;2023-03-14T02:00:09;9.40;89.90
52787;DHT22;38661;53.152;5.846;2023-03-14T02:02:41;9.40;90.30
52787;DHT22;38661;53.152;5.846;2023-03-14T02:05:09;9.30;90.70
52787;DHT22;38661;53.152;5.846;2023-03-14T02:07:36;9.40;90.50
52787;DHT22;38661;53.152;5.846;2023-03-14T02:10:05;9.30;90.80
52787;DHT22;38661;53.152;5.846;2023-03-14T02:12:35;9.30;90.60
52787;DHT22;38661;53.152;5.846;2023-03-14T02:15:00;9.30;90.70
52787;DHT22;38661;53.152;5.846;2023-03-14T02:17:26;9.30;90.80
52787;DHT22;38661;53.152;5.846;2023-03-14T02:22:26;9.30;90.90
52787;DHT22;38661;53.152;5.846;2023-03-14T02:27:41;9.30;91.40
52787;DHT22;38661;53.152;5.846;2023-03-14T02:30:12;9.30;91.40
52787;DHT22;38661;53.152;5.846;2023-03-14T02:32:41;9.20;91.60
52787;DHT22;38661;53.152;5.846;2023-03-14T02:35:11;9.20;91.80
52787;DHT22;38661;53.152;5.846;2023-03-14T02:37:48;9.20;91.80
52787;DHT22;38661;53.152;5.846;2023-03-14T02:40:14;9.20;92.00
52787;DHT22;38661;53.152;5.846;2023-03-14T02:42:40;9.20;91.90
52787;DHT22;38661;53.152;5.846;2023-03-14T02:47:41;9.20;92.10
52787;DHT22;38661;53.152;5.846;2023-03-14T02:50:12;9.20;91.80
52787;DHT22;38661;53.152;5.846;2023-03-14T02:52:38;9.10;92.90
52787;DHT22;38661;53.152;5.846;2023-03-14T02:55:04;9.10;93.40
52787;DHT22;38661;53.152;5.846;2023-03-14T02:57:30;9.00;93.30
52787;DHT22;38661;53.152;5.846;2023-03-14T03:00:00;9.00;93.40
52787;DHT22;38661;53.152;5.846;2023-03-14T03:02:27;9.00;93.60
52787;DHT22;38661;53.152;5.846;2023-03-14T03:04:53;9.00;93.10
52787;DHT22;38661;53.152;5.846;2023-03-14T03:07:19;9.00;93.00
52787;DHT22;38661;53.152;5.846;2023-03-14T03:09:45;9.00;93.10
52787;DHT22;38661;53.152;5.846;2023-03-14T03:12:11;9.00;93.00
52787;DHT22;38661;53.152;5.846;2023-03-14T03:14:37;9.00;93.20
52787;DHT22;38661;53.152;5.846;2023-03-14T03:17:06;9.00;93.00
52787;DHT22;38661;53.152;5.846;2023-03-14T03:19:34;9.00;93.00
52787;DHT22;38661;53.152;5.846;2023-03-14T03:21:59;9.10;93.00
52787;DHT22;38661;53.152;5.846;2023-03-14T03:24:26;9.00;93.20
52787;DHT22;38661;53.152;5.846;2023-03-14T03:26:52;9.10;93.00
52787;DHT22;38661;53.152;5.846;2023-03-14T03:29:18;9.00;93.00
52787;DHT22;38661;53.152;5.846;2023-03-14T03:31:44;9.00;93.40
52787;DHT22;38661;53.152;5.846;2023-03-14T03:34:13;9.00;93.20
52787;DHT22;38661;53.152;5.846;2023-03-14T03:36:39;9.00;93.20
52787;DHT22;38661;53.152;5.846;2023-03-14T03:39:05;9.00;93.60
52787;DHT22;38661;53.152;5.846;2023-03-14T03:41:31;9.00;93.20
52787;DHT22;38661;53.152;5.846;2023-03-14T03:43:57;9.00;93.20
52787;DHT22;38661;53.152;5.846;2023-03-14T03:46:23;9.00;93.40
52787;DHT22;38661;53.152;5.846;2023-03-14T03:49:02;9.00;93.30
52787;DHT22;38661;53.152;5.846;2023-03-14T03:51:28;9.00;93.10
52787;DHT22;38661;53.152;5.846;2023-03-14T03:53:54;9.00;93.30
52787;DHT22;38661;53.152;5.846;2023-03-14T03:56:21;8.90;93.30
52787;DHT22;38661;53.152;5.846;2023-03-14T03:58:46;8.90;93.50
52787;DHT22;38661;53.152;5.846;2023-03-14T04:01:12;8.90;93.40
52787;DHT22;38661;53.152;5.846;2023-03-14T04:03:38;9.00;93.20
52787;DHT22;38661;53.152;5.846;2023-03-14T04:06:12;9.00;92.90
52787;DHT22;38661;53.152;5.846;2023-03-14T04:08:38;9.00;93.30
52787;DHT22;38661;53.152;5.846;2023-03-14T04:11:06;9.00;93.30
52787;DHT22;38661;53.152;5.846;2023-03-14T04:13:31;9.00;92.90
52787;DHT22;38661;53.152;5.846;2023-03-14T04:15:57;9.00;93.20
52787;DHT22;38661;53.152;5.846;2023-03-14T04:18:24;9.00;93.00
52787;DHT22;38661;53.152;5.846;2023-03-14T04:20:53;9.00;93.00
52787;DHT22;38661;53.152;5.846;2023-03-14T04:23:19;9.00;93.00
52787;DHT22;38661;53.152;5.846;2023-03-14T04:25:44;9.00;93.00
52787;DHT22;38661;53.152;5.846;2023-03-14T04:28:10;9.00;93.10
52787;DHT22;38661;53.152;5.846;2023-03-14T04:30:36;9.00;93.30
52787;DHT22;38661;53.152;5.846;2023-03-14T04:33:01;9.00;93.60
52787;DHT22;38661;53.152;5.846;2023-03-14T04:35:29;8.90;93.50
52787;DHT22;38661;53.152;5.846;2023-03-14T04:37:55;8.90;93.90
52787;DHT22;38661;53.152;5.846;2023-03-14T04:40:21;8.90;94.00
52787;DHT22;38661;53.152;5.846;2023-03-14T04:42:46;8.90;94.00
52787;DHT22;38661;53.152;5.846;2023-03-14T04:45:12;8.90;93.90
52787;DHT22;38661;53.152;5.846;2023-03-14T04:47:38;8.80;94.30
52787;DHT22;38661;53.152;5.846;2023-03-14T04:50:04;8.80;94.60
52787;DHT22;38661;53.152;5.846;2023-03-14T04:52:29;8.70;95.20
52787;DHT22;38661;53.152;5.846;2023-03-14T04:54:55;8.80;95.00
52787;DHT22;38661;53.152;5.846;2023-03-14T04:57:21;8.70;95.00
52787;DHT22;38661;53.152;5.846;2023-03-14T04:59:46;8.70;95.10
52787;DHT22;38661;53.152;5.846;2023-03-14T05:02:12;8.80;95.20
52787;DHT22;38661;53.152;5.846;2023-03-14T05:04:38;8.70;95.40
52787;DHT22;38661;53.152;5.846;2023-03-14T05:07:03;8.70;95.10
52787;DHT22;38661;53.152;5.846;2023-03-14T05:09:29;8.70;95.50
52787;DHT22;38661;53.152;5.846;2023-03-14T05:11:55;8.70;95.50
52787;DHT22;38661;53.152;5.846;2023-03-14T05:14:22;8.70;96.20
52787;DHT22;38661;53.152;5.846;2023-03-14T05:16:47;8.70;95.80
52787;DHT22;38661;53.152;5.846;2023-03-14T05:19:13;8.70;95.80
52787;DHT22;38661;53.152;5.846;2023-03-14T05:21:39;8.70;95.90
52787;DHT22;38661;53.152;5.846;2023-03-14T05:24:04;8.80;95.80
52787;DHT22;38661;53.152;5.846;2023-03-14T05:26:30;8.80;95.60
52787;DHT22;38661;53.152;5.846;2023-03-14T05:28:56;8.70;95.90
52787;DHT22;38661;53.152;5.846;2023-03-14T05:31:22;8.70;95.90
52787;DHT22;38661;53.152;5.846;2023-03-14T05:33:47;8.70;95.70
52787;DHT22;38661;53.152;5.846;2023-03-14T05:36:13;8.70;95.60
52787;DHT22;38661;53.152;5.846;2023-03-14T05:38:39;8.70;95.80
52787;DHT22;38661;53.152;5.846;2023-03-14T05:41:04;8.70;96.20
52787;DHT22;38661;53.152;5.846;2023-03-14T05:43:30;8.70;95.90
52787;DHT22;38661;53.152;5.846;2023-03-14T05:45:56;8.70;96.00
52787;DHT22;38661;53.152;5.846;2023-03-14T05:48:21;8.70;96.00
52787;DHT22;38661;53.152;5.846;2023-03-14T05:50:48;8.70;95.80
52787;DHT22;38661;53.152;5.846;2023-03-14T05:53:14;8.70;96.00
52787;DHT22;38661;53.152;5.846;2023-03-14T05:55:40;8.60;96.00
52787;DHT22;38661;53.152;5.846;2023-03-14T05:58:06;8.60;95.90
52787;DHT22;38661;53.152;5.846;2023-03-14T06:00:32;8.40;95.60
52787;DHT22;38661;53.152;5.846;2023-03-14T06:02:58;8.30;95.60
52787;DHT22;38661;53.152;5.846;2023-03-14T06:05:23;8.10;95.40
52787;DHT22;38661;53.152;5.846;2023-03-14T06:07:49;8.00;95.10
52787;DHT22;38661;53.152;5.846;2023-03-14T06:10:15;7.80;94.80
52787;DHT22;38661;53.152;5.846;2023-03-14T06:12:41;7.60;94.50
52787;DHT22;38661;53.152;5.846;2023-03-14T06:15:07;7.60;94.30
52787;DHT22;38661;53.152;5.846;2023-03-14T06:17:33;7.40;93.50
52787;DHT22;38661;53.152;5.846;2023-03-14T06:19:58;7.30;93.10
52787;DHT22;38661;53.152;5.846;2023-03-14T06:22:24;7.10;92.90
52787;DHT22;38661;53.152;5.846;2023-03-14T06:24:50;7.00;92.70
52787;DHT22;38661;53.152;5.846;2023-03-14T06:27:15;6.90;92.50
52787;DHT22;38661;53.152;5.846;2023-03-14T06:29:41;6.80;92.00
52787;DHT22;38661;53.152;5.846;2023-03-14T06:32:07;6.60;92.00
52787;DHT22;38661;53.152;5.846;2023-03-14T06:34:33;6.50;91.50
52787;DHT22;38661;53.152;5.846;2023-03-14T06:36:59;6.40;91.40
52787;DHT22;38661;53.152;5.846;2023-03-14T06:39:24;6.30;91.70
52787;DHT22;38661;53.152;5.846;2023-03-14T06:41:50;6.20;91.60
52787;DHT22;38661;53.152;5.846;2023-03-14T06:44:16;6.10;91.80
52787;DHT22;38661;53.152;5.846;2023-03-14T06:46:41;6.10;91.90
52787;DHT22;38661;53.152;5.846;2023-03-14T06:49:07;6.10;91.80
52787;DHT22;38661;53.152;5.846;2023-03-14T06:51:33;6.00;92.00
52787;DHT22;38661;53.152;5.846;2023-03-14T06:53:59;5.90;91.70
52787;DHT22;38661;53.152;5.846;2023-03-14T06:56:25;5.90;91.90
52787;DHT22;38661;53.152;5.846;2023-03-14T06:58:51;5.90;91.90
52787;DHT22;38661;53.152;5.846;2023-03-14T07:01:23;5.90;91.70
52787;DHT22;38661;53.152;5.846;2023-03-14T07:03:49;5.90;91.60
52787;DHT22;38661;53.152;5.846;2023-03-14T07:06:15;5.80;91.60
52787;DHT22;38661;53.152;5.846;2023-03-14T07:08:41;5.80;91.90
52787;DHT22;38661;53.152;5.846;2023-03-14T07:11:07;5.80;91.90
52787;DHT22;38661;53.152;5.846;2023-03-14T07:13:33;5.80;91.90
52787;DHT22;38661;53.152;5.846;2023-03-14T07:15:59;5.70;91.60
52787;DHT22;38661;53.152;5.846;2023-03-14T07:18:24;5.70;91.80
52787;DHT22;38661;53.152;5.846;2023-03-14T07:20:50;5.70;91.80
52787;DHT22;38661;53.152;5.846;2023-03-14T07:23:16;5.70;91.50
52787;DHT22;38661;53.152;5.846;2023-03-14T07:25:41;5.70;91.50
52787;DHT22;38661;53.152;5.846;2023-03-14T07:28:07;5.70;91.60
52787;DHT22;38661;53.152;5.846;2023-03-14T07:30:33;5.70;91.60
52787;DHT22;38661;53.152;5.846;2023-03-14T07:32:58;5.70;91.50
52787;DHT22;38661;53.152;5.846;2023-03-14T07:35:24;5.70;91.40
52787;DHT22;38661;53.152;5.846;2023-03-14T07:37:50;5.70;91.30
52787;DHT22;38661;53.152;5.846;2023-03-14T07:40:15;5.70;91.40
52787;DHT22;38661;53.152;5.846;2023-03-14T07:42:44;5.70;91.50
52787;DHT22;38661;53.152;5.846;2023-03-14T07:45:10;5.70;91.30
52787;DHT22;38661;53.152;5.846;2023-03-14T07:47:36;5.70;91.20
52787;DHT22;38661;53.152;5.846;2023-03-14T07:50:04;5.70;91.00
52787;DHT22;38661;53.152;5.846;2023-03-14T07:52:30;5.70;91.00
52787;DHT22;38661;53.152;5.846;2023-03-14T07:54:55;5.80;90.80
52787;DHT22;38661;53.152;5.846;2023-03-14T07:57:22;5.80;90.30
52787;DHT22;38661;53.152;5.846;2023-03-14T07:59:49;5.90;90.20
52787;DHT22;38661;53.152;5.846;2023-03-14T08:02:15;5.90;90.10
52787;DHT22;38661;53.152;5.846;2023-03-14T08:04:41;5.90;90.20
52787;DHT22;38661;53.152;5.846;2023-03-14T08:07:06;6.00;90.00
52787;DHT22;38661;53.152;5.846;2023-03-14T08:09:32;6.00;90.10
52787;DHT22;38661;53.152;5.846;2023-03-14T08:11:58;6.00;90.10
52787;DHT22;38661;53.152;5.846;2023-03-14T08:14:23;6.10;89.80
52787;DHT22;38661;53.152;5.846;2023-03-14T08:16:50;6.10;89.70
52787;DHT22;38661;53.152;5.846;2023-03-14T08:19:16;6.10;89.80
52787;DHT22;38661;53.152;5.846;2023-03-14T08:21:41;6.10;89.90
52787;DHT22;38661;53.152;5.846;2023-03-14T08:24:07;6.10;90.10
52787;DHT22;38661;53.152;5.846;2023-03-14T08:26:33;6.10;89.70
52787;DHT22;38661;53.152;5.846;2023-03-14T08:28:59;6.10;89.50
52787;DHT22;38661;53.152;5.846;2023-03-14T08:31:25;6.20;89.20
52787;DHT22;38661;53.152;5.846;2023-03-14T08:33:51;6.30;89.10
52787;DHT22;38661;53.152;5.846;2023-03-14T08:36:18;6.30;88.20
52787;DHT22;38661;53.152;5.846;2023-03-14T08:38:44;6.30;87.80
52787;DHT22;38661;53.152;5.846;2023-03-14T08:41:10;6.50;87.20
52787;DHT22;38661;53.152;5.846;2023-03-14T08:43:36;6.60;87.10
52787;DHT22;38661;53.152;5.846;2023-03-14T08:46:03;6.60;87.00
52787;DHT22;38661;53.152;5.846;2023-03-14T08:48:30;6.70;86.60
52787;DHT22;38661;53.152;5.846;2023-03-14T08:50:56;6.70;86.70
52787;DHT22;38661;53.152;5.846;2023-03-14T08:53:22;6.70;86.40
52787;DHT22;38661;53.152;5.846;2023-03-14T08:55:54;6.70;86.10
52787;DHT22;38661;53.152;5.846;2023-03-14T08:58:20;6.70;86.20
52787;DHT22;38661;53.152;5.846;2023-03-14T09:00:48;6.60;86.20
52787;DHT22;38661;53.152;5.846;2023-03-14T09:03:13;6.60;86.80
52787;DHT22;38661;53.152;5.846;2023-03-14T09:05:40;6.60;86.30
52787;DHT22;38661;53.152;5.846;2023-03-14T09:08:05;6.50;85.90
52787;DHT22;38661;53.152;5.846;2023-03-14T09:10:31;6.50;85.10
52787;DHT22;38661;53.152;5.846;2023-03-14T09:12:57;6.40;85.00
52787;DHT22;38661;53.152;5.846;2023-03-14T09:15:24;6.40;84.90
52787;DHT22;38661;53.152;5.846;2023-03-14T09:17:49;6.40;84.10
52787;DHT22;38661;53.152;5.846;2023-03-14T09:20:15;6.50;83.50
52787;DHT22;38661;53.152;5.846;2023-03-14T09:22:41;6.50;82.60
52787;DHT22;38661;53.152;5.846;2023-03-14T09:25:07;6.50;82.30
52787;DHT22;38661;53.152;5.846;2023-03-14T09:27:33;6.60;81.20
52787;DHT22;38661;53.152;5.846;2023-03-14T09:29:59;6.60;81.30
52787;DHT22;38661;53.152;5.846;2023-03-14T09:32:24;6.60;81.80
52787;DHT22;38661;53.152;5.846;2023-03-14T09:34:50;6.70;81.40
52787;DHT22;38661;53.152;5.846;2023-03-14T09:37:16;6.70;79.90
52787;DHT22;38661;53.152;5.846;2023-03-14T09:39:42;6.70;78.30
52787;DHT22;38661;53.152;5.846;2023-03-14T09:42:14;6.70;78.40
52787;DHT22;38661;53.152;5.846;2023-03-14T09:45:28;6.80;77.80
52787;DHT22;38661;53.152;5.846;2023-03-14T09:47:55;6.80;76.00
52787;DHT22;38661;53.152;5.846;2023-03-14T09:50:23;6.80;74.70
52787;DHT22;38661;53.152;5.846;2023-03-14T09:52:54;6.90;74.70
52787;DHT22;38661;53.152;5.846;2023-03-14T09:55:22;6.90;74.50
52787;DHT22;38661;53.152;5.846;2023-03-14T09:57:56;6.90;73.40
52787;DHT22;38661;53.152;5.846;2023-03-14T10:00:27;6.80;73.10
52787;DHT22;38661;53.152;5.846;2023-03-14T10:02:58;6.80;72.90
52787;DHT22;38661;53.152;5.846;2023-03-14T10:05:25;6.80;71.70
52787;DHT22;38661;53.152;5.846;2023-03-14T10:07:53;6.80;71.40
52787;DHT22;38661;53.152;5.846;2023-03-14T10:10:21;6.80;71.50
52787;DHT22;38661;53.152;5.846;2023-03-14T10:15:35;7.00;70.80
52787;DHT22;38661;53.152;5.846;2023-03-14T10:18:03;7.00;70.10
52787;DHT22;38661;53.152;5.846;2023-03-14T10:20:30;7.00;67.80
52787;DHT22;38661;53.152;5.846;2023-03-14T10:23:45;7.10;68.80
52787;DHT22;38661;53.152;5.846;2023-03-14T10:26:23;7.10;69.20
52787;DHT22;38661;53.152;5.846;2023-03-14T10:28:46;7.20;69.00
52787;DHT22;38661;53.152;5.846;2023-03-14T10:31:13;7.30;68.20
52787;DHT22;38661;53.152;5.846;2023-03-14T10:33:39;7.30;67.20
52787;DHT22;38661;53.152;5.846;2023-03-14T10:36:19;7.20;65.90
52787;DHT22;38661;53.152;5.846;2023-03-14T10:38:46;7.20;65.10
52787;DHT22;38661;53.152;5.846;2023-03-14T10:41:26;7.30;66.00
52787;DHT22;38661;53.152;5.846;2023-03-14T10:43:54;7.30;64.00
52787;DHT22;38661;53.152;5.846;2023-03-14T10:46:24;7.40;65.40
52787;DHT22;38661;53.152;5.846;2023-03-14T10:48:51;7.40;65.40
52787;DHT22;38661;53.152;5.846;2023-03-14T10:51:39;7.30;63.30
52787;DHT22;38661;53.152;5.846;2023-03-14T10:54:14;7.20;63.60
52787;DHT22;38661;53.152;5.846;2023-03-14T10:56:44;7.20;65.30
52787;DHT22;38661;53.152;5.846;2023-03-14T10:59:14;7.30;65.40
52787;DHT22;38661;53.152;5.846;2023-03-14T11:02:00;7.50;62.80
52787;DHT22;38661;53.152;5.846;2023-03-14T11:07:36;7.70;61.50
52787;DHT22;38661;53.152;5.846;2023-03-14T11:10:24;7.80;59.60
52787;DHT22;38661;53.152;5.846;2023-03-14T11:13:22;7.80;57.10
52787;DHT22;38661;53.152;5.846;2023-03-14T11:16:16;7.80;58.20
52787;DHT22;38661;53.152;5.846;2023-03-14T11:22:04;8.00;58.00
52787;DHT22;38661;53.152;5.846;2023-03-14T11:27:55;8.10;56.10
52787;DHT22;38661;53.152;5.846;2023-03-14T11:30:42;8.10;56.20
52787;DHT22;38661;53.152;5.846;2023-03-14T11:33:21;8.10;56.90
52787;DHT22;38661;53.152;5.846;2023-03-14T11:36:08;8.10;58.20
52787;DHT22;38661;53.152;5.846;2023-03-14T11:38:46;8.30;58.20
52787;DHT22;38661;53.152;5.846;2023-03-14T11:41:17;8.50;59.90
52787;DHT22;38661;53.152;5.846;2023-03-14T11:43:48;8.50;57.50
52787;DHT22;38661;53.152;5.846;2023-03-14T11:46:18;8.50;59.00
52787;DHT22;38661;53.152;5.846;2023-03-14T11:51:52;8.20;59.80
52787;DHT22;38661;53.152;5.846;2023-03-14T11:54:43;7.90;60.30
52787;DHT22;38661;53.152;5.846;2023-03-14T11:57:20;8.00;62.90
52787;DHT22;38661;53.152;5.846;2023-03-14T12:10:59;7.90;59.90
52787;DHT22;38661;53.152;5.846;2023-03-14T12:13:33;8.00;57.70
52787;DHT22;38661;53.152;5.846;2023-03-14T12:16:03;8.10;57.60
52787;DHT22;38661;53.152;5.846;2023-03-14T12:18:32;8.10;57.90
52787;DHT22;38661;53.152;5.846;2023-03-14T12:21:03;8.10;58.60
52787;DHT22;38661;53.152;5.846;2023-03-14T12:23:48;8.10;57.60
52787;DHT22;38661;53.152;5.846;2023-03-14T12:26:16;8.00;58.00
52787;DHT22;38661;53.152;5.846;2023-03-14T12:28:44;7.80;57.80
52787;DHT22;38661;53.152;5.846;2023-03-14T12:36:56;8.10;53.90
52787;DHT22;38661;53.152;5.846;2023-03-14T12:44:47;8.10;55.40
52787;DHT22;38661;53.152;5.846;2023-03-14T12:49:47;8.20;58.30
52787;DHT22;38661;53.152;5.846;2023-03-14T12:52:17;8.30;58.60
52787;DHT22;38661;53.152;5.846;2023-03-14T12:57:32;8.60;57.20
52787;DHT22;38661;53.152;5.846;2023-03-14T13:00:02;8.60;54.10
52787;DHT22;38661;53.152;5.846;2023-03-14T13:02:41;8.50;56.00
52787;DHT22;38661;53.152;5.846;2023-03-14T13:05:18;8.60;55.90
52787;DHT22;38661;53.152;5.846;2023-03-14T13:12:55;8.50;53.10
52787;DHT22;38661;53.152;5.846;2023-03-14T13:15:26;8.30;51.60
52787;DHT22;38661;53.152;5.846;2023-03-14T13:17:55;8.20;52.00
52787;DHT22;38661;53.152;5.846;2023-03-14T13:20:34;8.20;53.30
52787;DHT22;38661;53.152;5.846;2023-03-14T13:23:01;8.20;53.20
52787;DHT22;38661;53.152;5.846;2023-03-14T13:25:32;8.20;53.10
52787;DHT22;38661;53.152;5.846;2023-03-14T13:27:58;8.30;54.00
52787;DHT22;38661;53.152;5.846;2023-03-14T13:30:38;8.40;54.40
52787;DHT22;38661;53.152;5.846;2023-03-14T13:33:05;8.50;52.40
52787;DHT22;38661;53.152;5.846;2023-03-14T13:35:42;8.60;51.90
52787;DHT22;38661;53.152;5.846;2023-03-14T13:38:23;8.50;53.30
52787;DHT22;38661;53.152;5.846;2023-03-14T13:40:50;8.40;53.20
52787;DHT22;38661;53.152;5.846;2023-03-14T13:43:34;8.20;53.00
52787;DHT22;38661;53.152;5.846;2023-03-14T13:46:03;8.20;53.90
52787;DHT22;38661;53.152;5.846;2023-03-14T13:48:30;8.10;53.50
52787;DHT22;38661;53.152;5.846;2023-03-14T13:51:05;8.20;54.40
52787;DHT22;38661;53.152;5.846;2023-03-14T13:53:32;8.50;53.10
52787;DHT22;38661;53.152;5.846;2023-03-14T13:56:01;8.50;52.30
52787;DHT22;38661;53.152;5.846;2023-03-14T13:58:29;8.40;52.50
52787;DHT22;38661;53.152;5.846;2023-03-14T14:01:14;8.10;51.20
52787;DHT22;38661;53.152;5.846;2023-03-14T14:03:42;8.00;51.40
52787;DHT22;38661;53.152;5.846;2023-03-14T14:06:16;8.00;52.00
52787;DHT22;38661;53.152;5.846;2023-03-14T14:08:45;8.10;50.10
52787;DHT22;38661;53.152;5.846;2023-03-14T14:11:21;8.20;51.60
52787;DHT22;38661;53.152;5.846;2023-03-14T14:13:48;8.30;52.20
52787;DHT22;38661;53.152;5.846;2023-03-14T14:16:16;8.40;53.90
52787;DHT22;38661;53.152;5.846;2023-03-14T14:18:44;8.60;53.60
52787;DHT22;38661;53.152;5.846;2023-03-14T14:21:11;8.70;51.40
52787;DHT22;38661;53.152;5.846;2023-03-14T14:23:38;8.80;51.30
52787;DHT22;38661;53.152;5.846;2023-03-14T14:26:05;8.90;51.90
52787;DHT22;38661;53.152;5.846;2023-03-14T14:28:36;8.80;52.40
52787;DHT22;38661;53.152;5.846;2023-03-14T14:31:04;8.70;54.30
52787;DHT22;38661;53.152;5.846;2023-03-14T14:34:17;8.60;54.50
52787;DHT22;38661;53.152;5.846;2023-03-14T14:36:31;8.60;55.50
52787;DHT22;38661;53.152;5.846;2023-03-14T14:39:00;8.50;56.70
52787;DHT22;38661;53.152;5.846;2023-03-14T14:41:31;8.50;57.90
52787;DHT22;38661;53.152;5.846;2023-03-14T14:43:58;8.60;60.10
52787;DHT22;38661;53.152;5.846;2023-03-14T14:46:27;8.70;57.10
52787;DHT22;38661;53.152;5.846;2023-03-14T14:48:57;8.60;55.50
52787;DHT22;38661;53.152;5.846;2023-03-14T14:51:25;8.60;57.10
52787;DHT22;38661;53.152;5.846;2023-03-14T14:54:09;8.50;57.50
52787;DHT22;38661;53.152;5.846;2023-03-14T14:56:37;8.20;55.60
52787;DHT22;38661;53.152;5.846;2023-03-14T14:59:03;7.90;54.80
52787;DHT22;38661;53.152;5.846;2023-03-14T15:01:39;7.70;56.00
52787;DHT22;38661;53.152;5.846;2023-03-14T15:04:13;7.50;56.60
52787;DHT22;38661;53.152;5.846;2023-03-14T15:06:43;7.50;58.80
52787;DHT22;38661;53.152;5.846;2023-03-14T15:09:11;7.70;57.50
52787;DHT22;38661;53.152;5.846;2023-03-14T15:11:37;7.80;58.20
52787;DHT22;38661;53.152;5.846;2023-03-14T15:14:03;7.70;57.90
52787;DHT22;38661;53.152;5.846;2023-03-14T15:16:30;7.70;56.30
52787;DHT22;38661;53.152;5.846;2023-03-14T15:19:02;7.50;56.20
52787;DHT22;38661;53.152;5.846;2023-03-14T15:21:31;7.40;56.90
52787;DHT22;38661;53.152;5.846;2023-03-14T15:23:58;7.20;58.20
52787;DHT22;38661;53.152;5.846;2023-03-14T15:26:26;7.00;65.70
52787;DHT22;38661;53.152;5.846;2023-03-14T15:28:53;6.50;70.40
52787;DHT22;38661;53.152;5.846;2023-03-14T15:31:19;6.00;72.40
52787;DHT22;38661;53.152;5.846;2023-03-14T15:33:47;5.70;74.00
52787;DHT22;38661;53.152;5.846;2023-03-14T15:36:22;5.60;75.40
52787;DHT22;38661;53.152;5.846;2023-03-14T15:38:50;5.60;76.10
52787;DHT22;38661;53.152;5.846;2023-03-14T15:41:16;5.60;76.50
52787;DHT22;38661;53.152;5.846;2023-03-14T15:43:42;5.60;75.90
52787;DHT22;38661;53.152;5.846;2023-03-14T15:46:12;5.60;76.40
52787;DHT22;38661;53.152;5.846;2023-03-14T15:48:37;5.70;75.60
52787;DHT22;38661;53.152;5.846;2023-03-14T15:51:03;5.90;74.60
52787;DHT22;38661;53.152;5.846;2023-03-14T15:53:29;6.10;72.60
52787;DHT22;38661;53.152;5.846;2023-03-14T15:55:54;6.50;69.60
52787;DHT22;38661;53.152;5.846;2023-03-14T15:58:21;6.90;66.20
52787;DHT22;38661;53.152;5.846;2023-03-14T16:00:46;7.10;65.10
52787;DHT22;38661;53.152;5.846;2023-03-14T16:03:12;7.20;63.60
52787;DHT22;38661;53.152;5.846;2023-03-14T16:05:39;7.40;61.50
52787;DHT22;38661;53.152;5.846;2023-03-14T16:08:05;7.50;60.80
52787;DHT22;38661;53.152;5.846;2023-03-14T16:10:31;7.50;59.10
52787;DHT22;38661;53.152;5.846;2023-03-14T16:12:57;7.30;58.80
52787;DHT22;38661;53.152;5.846;2023-03-14T16:15:23;7.10;61.30
52787;DHT22;38661;53.152;5.846;2023-03-14T16:17:54;6.90;61.60
52787;DHT22;38661;53.152;5.846;2023-03-14T16:20:21;6.80;62.40
52787;DHT22;38661;53.152;5.846;2023-03-14T16:22:47;6.60;63.80
52787;DHT22;38661;53.152;5.846;2023-03-14T16:25:13;6.50;64.70
52787;DHT22;38661;53.152;5.846;2023-03-14T16:27:39;6.60;64.90
52787;DHT22;38661;53.152;5.846;2023-03-14T16:30:07;6.60;65.90
52787;DHT22;38661;53.152;5.846;2023-03-14T16:32:33;6.60;64.70
52787;DHT22;38661;53.152;5.846;2023-03-14T16:35:00;6.60;63.80
52787;DHT22;38661;53.152;5.846;2023-03-14T16:37:26;6.60;64.10
52787;DHT22;38661;53.152;5.846;2023-03-14T16:39:52;6.70;64.00
52787;DHT22;38661;53.152;5.846;2023-03-14T16:42:18;6.50;63.60
52787;DHT22;38661;53.152;5.846;2023-03-14T16:44:44;6.50;63.60
52787;DHT22;38661;53.152;5.846;2023-03-14T16:47:10;6.40;63.30
52787;DHT22;38661;53.152;5.846;2023-03-14T16:49:36;6.30;64.20